createdAt,value
2019-04-06T00:00:25.761Z,30.70
2019-04-06T00:02:54.621Z,35.53
2019-04-06T00:05:23.486Z,28.57
2019-04-06T00:07:52.700Z,32.70
2019-04-06T00:10:21.571Z,50.80
2019-04-06T00:12:50.495Z,40.63
2019-04-06T00:15:19.473Z,37.40
2019-04-06T00:17:48.415Z,26.70
2019-04-06T00:20:17.518Z,30.80
2019-04-06T00:22:46.421Z,31.10
2019-04-06T00:25:15.345Z,28.00
2019-04-06T00:27:44.166Z,31.40
2019-04-06T00:30:14.267Z,33.63
2019-04-06T00:32:59.311Z,34.40
2019-04-06T00:35:28.122Z,35.67
2019-04-06T00:37:56.921Z,36.10
2019-04-06T00:40:25.742Z,41.37
2019-04-06T00:42:54.601Z,31.27
2019-04-06T00:45:23.442Z,39.70
2019-04-06T00:47:52.336Z,45.13
2019-04-06T00:50:21.258Z,28.03
2019-04-06T00:52:50.070Z,29.10
2019-04-06T00:55:18.876Z,35.33
2019-04-06T00:57:47.688Z,43.90
2019-04-06T01:00:16.591Z,30.67
2019-04-06T01:02:45.493Z,27.90
2019-04-06T01:05:14.461Z,31.23
2019-04-06T01:07:43.326Z,25.63
2019-04-06T01:10:12.278Z,20.40
2019-04-06T01:12:41.137Z,20.80
2019-04-06T01:15:10.181Z,19.80
2019-04-06T01:17:38.968Z,19.23
2019-04-06T01:20:08.023Z,24.30
2019-04-06T01:22:36.821Z,21.23
2019-04-06T01:25:07.542Z,30.30
2019-04-06T01:27:36.418Z,31.17
2019-04-06T01:30:07.009Z,33.33
2019-04-06T01:32:35.891Z,32.43
2019-04-06T01:35:04.996Z,45.43
2019-04-06T01:37:33.804Z,45.00
2019-04-06T01:40:02.616Z,32.00
2019-04-06T01:42:31.496Z,30.50
2019-04-06T01:45:00.304Z,29.50
2019-04-06T01:47:29.186Z,43.93
2019-04-06T01:49:57.969Z,39.53
2019-04-06T01:52:26.827Z,54.13
2019-04-06T01:54:55.713Z,37.03
2019-04-06T01:57:24.541Z,46.17
2019-04-06T01:59:53.349Z,51.83
2019-04-06T02:02:28.397Z,56.60
2019-04-06T02:04:57.342Z,54.13
2019-04-06T02:07:26.174Z,61.13
2019-04-06T02:09:54.977Z,100.17
2019-04-06T02:12:23.804Z,58.47
2019-04-06T02:14:52.609Z,62.50
2019-04-06T02:17:21.493Z,60.60
2019-04-06T02:19:50.401Z,44.50
2019-04-06T02:22:19.217Z,53.83
2019-04-06T02:24:48.020Z,43.23
2019-04-06T02:27:16.832Z,62.90
2019-04-06T02:29:45.648Z,53.57
2019-04-06T02:32:31.556Z,66.73
2019-04-06T02:35:37.762Z,68.03
2019-04-06T02:38:13.949Z,65.37
2019-04-06T02:40:47.719Z,55.57
2019-04-06T02:43:19.541Z,44.53
2019-04-06T02:45:48.366Z,93.10
2019-04-06T02:48:17.310Z,61.83
2019-04-06T02:50:46.124Z,74.20
2019-04-06T02:53:14.993Z,85.73
2019-04-06T02:55:43.834Z,75.73
2019-04-06T02:58:12.647Z,84.57
2019-04-06T03:00:41.652Z,72.80
2019-04-06T03:03:10.619Z,46.13
2019-04-06T03:05:39.589Z,78.23
2019-04-06T03:08:08.528Z,65.63
2019-04-06T03:10:37.348Z,60.33
2019-04-06T03:13:06.261Z,65.40
2019-04-06T03:15:35.405Z,65.10
2019-04-06T03:18:04.600Z,62.03
2019-04-06T03:20:33.510Z,65.60
2019-04-06T03:23:02.330Z,64.73
2019-04-06T03:25:31.131Z,68.37
2019-04-06T03:28:00.033Z,64.53
2019-04-06T03:30:29.276Z,56.53
2019-04-06T03:32:58.293Z,61.13
2019-04-06T03:35:27.527Z,61.70
2019-04-06T03:37:56.635Z,61.33
2019-04-06T03:40:25.567Z,62.80
2019-04-06T03:42:54.482Z,61.63
2019-04-06T03:45:23.370Z,64.13
2019-04-06T03:47:52.191Z,75.97
2019-04-06T03:50:21.201Z,82.23
2019-04-06T03:52:50.119Z,80.67
2019-04-06T03:55:18.999Z,79.43
2019-04-06T03:57:47.825Z,68.93
2019-04-06T04:00:16.976Z,70.73
2019-04-06T04:02:45.804Z,64.37
2019-04-06T04:05:14.689Z,65.03
2019-04-06T04:07:43.518Z,84.87
2019-04-06T04:10:21.680Z,84.73
2019-04-06T04:12:50.618Z,97.43
2019-04-06T04:15:19.806Z,107.10
2019-04-06T04:17:49.738Z,88.90
2019-04-06T04:20:18.620Z,117.30
2019-04-06T04:22:47.436Z,68.40
2019-04-06T04:25:16.245Z,73.33
2019-04-06T04:27:45.150Z,114.87
2019-04-06T04:30:15.364Z,127.87
2019-04-06T04:32:44.813Z,120.50
2019-04-06T04:35:13.951Z,121.57
2019-04-06T04:37:43.160Z,77.17
2019-04-06T04:40:12.360Z,102.13
2019-04-06T04:42:41.250Z,112.23
2019-04-06T04:45:10.307Z,76.97
2019-04-06T04:47:39.351Z,95.87
2019-04-06T04:50:08.459Z,102.87
2019-04-06T04:52:37.560Z,112.50
2019-04-06T04:55:06.868Z,111.97
2019-04-06T04:57:41.220Z,116.57
2019-04-06T05:00:06.841Z,90.90
2019-04-06T05:02:35.838Z,96.87
2019-04-06T05:05:05.113Z,81.37
2019-04-06T05:07:33.974Z,88.80
2019-04-06T05:10:02.884Z,70.70
2019-04-06T05:12:31.767Z,61.37
2019-04-06T05:15:03.274Z,52.37
2019-04-06T05:17:32.309Z,64.83
2019-04-06T05:20:01.305Z,46.93
2019-04-06T05:22:30.383Z,52.53
2019-04-06T05:24:59.232Z,63.63
2019-04-06T05:27:28.112Z,66.50
2019-04-06T05:29:56.937Z,65.03
2019-04-06T05:32:25.896Z,61.63
2019-04-06T05:34:54.825Z,73.40
2019-04-06T05:37:23.709Z,59.03
2019-04-06T05:39:52.537Z,70.13
2019-04-06T05:42:21.353Z,54.33
2019-04-06T05:44:50.380Z,50.93
2019-04-06T05:47:19.304Z,53.23
2019-04-06T05:49:48.165Z,53.00
2019-04-06T05:52:17.154Z,38.83
2019-04-06T05:54:46.074Z,48.13
2019-04-06T05:57:14.964Z,38.80
2019-04-06T05:59:43.820Z,52.63
2019-04-06T06:02:12.725Z,39.53
2019-04-06T06:04:41.686Z,36.53
2019-04-06T06:07:10.605Z,36.90
2019-04-06T06:09:39.461Z,39.53
2019-04-06T06:12:10.158Z,35.93
2019-04-06T06:14:38.981Z,38.00
2019-04-06T06:17:07.818Z,42.00
2019-04-06T06:19:36.670Z,34.27
2019-04-06T06:22:05.971Z,37.07
2019-04-06T06:24:35.168Z,36.60
2019-04-06T06:27:04.254Z,31.70
2019-04-06T06:29:33.061Z,38.70
2019-04-06T06:32:01.920Z,38.67
2019-04-06T06:34:30.750Z,39.77
2019-04-06T06:36:59.626Z,41.27
2019-04-06T06:39:28.442Z,38.53
2019-04-06T06:41:57.245Z,34.17
2019-04-06T06:44:26.061Z,31.37
2019-04-06T06:46:54.936Z,31.07
2019-04-06T06:49:23.764Z,28.70
2019-04-06T06:51:52.560Z,27.50
2019-04-06T06:54:21.457Z,24.00
2019-04-06T06:56:51.025Z,22.50
2019-04-06T06:59:20.175Z,22.70
2019-04-06T07:01:49.177Z,18.93
2019-04-06T07:04:18.323Z,18.53
2019-04-06T07:06:47.197Z,17.63
2019-04-06T07:09:16.383Z,15.70
2019-04-06T07:11:45.437Z,16.20
2019-04-06T07:14:14.244Z,14.30
2019-04-06T07:16:43.285Z,14.87
2019-04-06T07:19:12.346Z,13.90
2019-04-06T07:21:41.154Z,12.53
2019-04-06T07:24:10.035Z,13.10
2019-04-06T07:26:41.159Z,12.97
2019-04-06T07:29:09.425Z,12.60
2019-04-06T07:31:48.171Z,11.10
2019-04-06T07:34:17.120Z,11.17
2019-04-06T07:36:45.930Z,10.93
2019-04-06T07:39:14.740Z,10.37
2019-04-06T07:41:43.538Z,11.00
2019-04-06T07:44:12.327Z,9.10
2019-04-06T07:46:41.137Z,10.10
2019-04-06T07:49:10.620Z,9.27
2019-04-06T07:51:39.507Z,8.40
2019-04-06T07:54:08.354Z,9.03
2019-04-06T07:56:56.681Z,8.10
2019-04-06T07:59:25.558Z,7.80
2019-04-06T08:01:54.360Z,7.60
2019-04-06T08:04:23.176Z,7.53
2019-04-06T08:06:52.037Z,6.80
2019-04-06T08:09:21.003Z,6.50
2019-04-06T08:11:49.967Z,7.30
2019-04-06T08:14:18.777Z,7.47
2019-04-06T08:16:47.909Z,7.00
2019-04-06T08:19:16.745Z,7.43
2019-04-06T08:21:45.746Z,7.17
2019-04-06T08:24:14.541Z,7.10
2019-04-06T08:26:46.019Z,7.53
2019-04-06T08:29:13.937Z,6.50
2019-04-06T08:31:42.744Z,6.60
2019-04-06T08:34:13.467Z,7.20
2019-04-06T08:36:42.094Z,6.50
2019-04-06T08:39:10.978Z,6.90
2019-04-06T08:41:39.777Z,7.10
2019-04-06T08:44:08.563Z,6.60
2019-04-06T08:46:37.575Z,7.67
2019-04-06T08:49:06.437Z,7.93
2019-04-06T08:51:35.489Z,7.03
2019-04-06T08:54:04.369Z,7.70
2019-04-06T08:56:33.221Z,7.00
2019-04-06T08:59:10.742Z,7.70
2019-04-06T09:01:32.706Z,7.90
2019-04-06T09:04:01.513Z,7.80
2019-04-06T09:06:30.678Z,7.17
2019-04-06T09:08:59.875Z,7.50
2019-04-06T09:11:28.770Z,7.30
2019-04-06T09:13:57.921Z,8.10
2019-04-06T09:16:26.858Z,8.00
2019-04-06T09:18:55.654Z,8.10
2019-04-06T09:21:24.574Z,8.27
2019-04-06T09:23:53.464Z,8.20
2019-04-06T09:26:22.316Z,8.63
2019-04-06T09:28:51.249Z,8.57
2019-04-06T09:31:20.305Z,8.60
2019-04-06T09:33:49.194Z,8.97
2019-04-06T09:36:18.035Z,7.80
2019-04-06T09:38:46.832Z,7.37
2019-04-06T09:41:15.649Z,8.40
2019-04-06T09:43:47.515Z,8.37
2019-04-06T09:46:35.476Z,9.03
2019-04-06T09:49:11.108Z,9.67
2019-04-06T09:51:59.013Z,8.93
2019-04-06T09:54:52.933Z,9.43
2019-04-06T09:57:41.096Z,12.63
2019-04-06T10:00:40.811Z,10.87
2019-04-06T10:03:38.345Z,10.33
2019-04-06T10:06:26.277Z,17.10
2019-04-06T10:09:14.154Z,9.90
2019-04-06T10:11:57.370Z,9.90
2019-04-06T10:14:45.392Z,10.30
2019-04-06T10:17:32.469Z,9.97
2019-04-06T10:20:27.719Z,10.20
2019-04-06T10:23:21.709Z,20.80
2019-04-06T10:26:21.813Z,13.87
2019-04-06T10:29:12.711Z,9.50
2019-04-06T10:32:06.851Z,9.50
2019-04-06T10:34:53.358Z,9.23
2019-04-06T10:37:45.035Z,8.87
2019-04-06T10:40:33.229Z,8.50
2019-04-06T10:43:12.417Z,9.10
2019-04-06T10:45:54.730Z,9.40
2019-04-06T10:48:29.251Z,8.23
2019-04-06T10:51:32.572Z,20.70
2019-04-06T10:54:07.673Z,15.90
2019-04-06T10:57:02.644Z,9.53
2019-04-06T10:59:46.203Z,10.40
2019-04-06T11:02:32.968Z,10.03
2019-04-06T11:05:10.342Z,13.63
2019-04-06T11:07:48.536Z,11.87
2019-04-06T11:10:25.765Z,9.63
2019-04-06T11:13:09.654Z,9.80
2019-04-06T11:15:59.078Z,9.40
2019-04-06T11:18:46.522Z,9.43
2019-04-06T11:21:37.324Z,8.70
2019-04-06T11:24:17.103Z,13.87
2019-04-06T11:27:03.888Z,9.10
2019-04-06T11:29:57.892Z,10.50
2019-04-06T11:32:38.880Z,10.13
2019-04-06T11:35:17.690Z,9.83
2019-04-06T11:38:05.789Z,9.03
2019-04-06T11:40:54.873Z,10.30
2019-04-06T11:43:41.519Z,8.67
2019-04-06T11:46:28.120Z,9.40
2019-04-06T11:49:04.452Z,9.17
2019-04-06T11:52:01.714Z,8.93
2019-04-06T11:54:48.513Z,8.80
2019-04-06T11:57:36.484Z,9.13
2019-04-06T12:00:28.422Z,9.00
2019-04-06T12:03:03.438Z,9.53
2019-04-06T12:05:41.238Z,9.10
2019-04-06T12:08:25.412Z,8.50
2019-04-06T12:11:31.719Z,9.93
2019-04-06T12:14:22.696Z,9.30
2019-04-06T12:17:13.606Z,9.40
2019-04-06T12:19:59.763Z,10.00
2019-04-06T12:22:35.017Z,9.37
2019-04-06T12:25:20.604Z,8.53
2019-04-06T12:28:07.734Z,10.70
2019-04-06T12:30:58.686Z,9.57
2019-04-06T12:33:50.015Z,9.70
2019-04-06T12:36:46.996Z,10.07
2019-04-06T12:39:25.060Z,16.13
2019-04-06T12:42:17.542Z,24.40
2019-04-06T12:44:56.833Z,16.03
2019-04-06T12:47:50.828Z,10.83
2019-04-06T12:50:37.819Z,11.67
2019-04-06T12:53:28.543Z,10.00
2019-04-06T12:56:09.855Z,11.27
2019-04-06T12:58:46.959Z,10.07
2019-04-06T13:01:33.917Z,20.40
2019-04-06T13:04:20.381Z,27.17
2019-04-06T13:07:16.459Z,26.10
2019-04-06T13:10:16.537Z,26.50
2019-04-06T13:13:04.498Z,23.77
2019-04-06T13:15:42.445Z,24.17
2019-04-06T13:18:42.603Z,24.80
2019-04-06T13:21:39.421Z,23.47
2019-04-06T13:24:13.850Z,22.77
2019-04-06T13:27:03.520Z,22.13
2019-04-06T13:29:42.794Z,19.43
2019-04-06T13:32:29.565Z,16.00
2019-04-06T13:35:08.294Z,15.83
2019-04-06T13:37:55.325Z,15.73
2019-04-06T13:40:48.510Z,15.47
2019-04-06T13:43:36.587Z,15.93
2019-04-06T13:46:27.637Z,14.10
2019-04-06T13:49:12.506Z,12.33
2019-04-06T13:52:03.329Z,12.43
2019-04-06T13:54:41.772Z,12.17
2019-04-06T13:57:20.312Z,12.17
2019-04-06T14:00:02.730Z,11.83
2019-04-06T14:02:40.738Z,11.77
2019-04-06T14:05:44.786Z,12.23
2019-04-06T14:08:24.021Z,11.73
2019-04-06T14:10:58.991Z,12.20
2019-04-06T14:13:40.210Z,11.00
2019-04-06T14:16:30.982Z,12.87
2019-04-06T14:19:17.580Z,11.90
2019-04-06T14:21:53.370Z,11.90
2019-04-06T14:24:39.868Z,12.27
2019-04-06T14:27:21.237Z,12.10
2019-04-06T14:30:09.173Z,12.43
2019-04-06T14:32:48.927Z,11.10
2019-04-06T14:35:33.609Z,12.27
2019-04-06T14:38:24.489Z,12.43
2019-04-06T14:41:27.967Z,11.60
2019-04-06T14:44:30.721Z,12.00
2019-04-06T14:47:09.986Z,11.57
2019-04-06T14:49:53.766Z,11.50
2019-04-06T14:52:43.891Z,10.80
2019-04-06T14:55:37.790Z,12.10
2019-04-06T14:58:31.955Z,11.63
2019-04-06T15:01:13.319Z,12.17
2019-04-06T15:04:01.558Z,12.60
2019-04-06T15:06:46.111Z,11.93
2019-04-06T15:09:31.144Z,12.30
2019-04-06T15:12:23.974Z,12.50
2019-04-06T15:15:04.101Z,12.47
2019-04-06T15:17:41.580Z,12.37
2019-04-06T15:20:26.067Z,12.50
2019-04-06T15:23:05.854Z,11.67
2019-04-06T15:25:57.045Z,12.70
2019-04-06T15:28:37.643Z,12.20
2019-04-06T15:31:29.188Z,11.07
2019-04-06T15:34:09.706Z,11.50
2019-04-06T15:36:52.077Z,13.73
2019-04-06T15:39:38.875Z,14.67
2019-04-06T15:42:15.129Z,14.70
2019-04-06T15:45:02.322Z,15.40
2019-04-06T15:47:49.566Z,15.40
2019-04-06T15:50:38.980Z,15.27
2019-04-06T15:53:30.893Z,14.90
2019-04-06T15:56:21.603Z,15.67
2019-04-06T15:59:12.367Z,14.83
2019-04-06T16:02:04.164Z,14.53
2019-04-06T16:04:59.178Z,13.30
2019-04-06T16:08:00.347Z,14.30
2019-04-06T16:10:52.384Z,13.73
2019-04-06T16:13:52.929Z,14.30
2019-04-06T16:16:29.339Z,13.70
2019-04-06T16:19:06.165Z,14.07
2019-04-06T16:21:53.505Z,13.67
2019-04-06T16:24:42.098Z,14.97
2019-04-06T16:27:18.700Z,15.03
2019-04-06T16:29:55.950Z,14.43
2019-04-06T16:32:36.480Z,14.23
2019-04-06T16:35:24.093Z,15.40
2019-04-06T16:38:18.740Z,15.00
2019-04-06T16:41:09.024Z,14.27
2019-04-06T16:43:53.136Z,13.63
2019-04-06T16:46:30.214Z,14.20
2019-04-06T16:49:27.223Z,13.03
2019-04-06T16:52:18.438Z,13.63
2019-04-06T16:54:55.638Z,15.80
2019-04-06T16:57:42.615Z,15.67
2019-04-06T17:00:23.326Z,16.47
2019-04-06T17:03:10.005Z,15.83
2019-04-06T17:06:02.915Z,15.37
2019-04-06T17:08:50.816Z,16.67
2019-04-06T17:11:54.375Z,16.67
2019-04-06T17:15:03.513Z,18.60
2019-04-06T17:18:01.034Z,18.03
2019-04-06T17:20:49.349Z,19.17
2019-04-06T17:23:43.308Z,19.10
2019-04-06T17:26:21.986Z,19.00
2019-04-06T17:29:09.150Z,19.30
2019-04-06T17:31:44.648Z,20.30
2019-04-06T17:34:25.826Z,21.13
2019-04-06T17:37:01.066Z,20.43
2019-04-06T17:39:51.744Z,20.27
2019-04-06T17:42:29.874Z,20.30
2019-04-06T17:45:27.881Z,21.50
2019-04-06T17:48:16.190Z,21.23
2019-04-06T17:51:03.218Z,21.87
2019-04-06T17:53:41.500Z,21.50
2019-04-06T17:56:21.025Z,20.47
2019-04-06T17:59:24.723Z,21.57
2019-04-06T18:02:14.544Z,22.10
2019-04-06T18:05:10.757Z,22.87
2019-04-06T18:08:01.673Z,22.33
2019-04-06T18:10:37.844Z,22.37
2019-04-06T18:13:41.240Z,22.03
2019-04-06T18:16:10.063Z,22.90
2019-04-06T18:18:38.893Z,21.20
2019-04-06T18:21:10.858Z,21.93
2019-04-06T18:23:39.665Z,22.70
2019-04-06T18:26:08.464Z,22.87
2019-04-06T18:28:37.284Z,22.60
2019-04-06T18:31:15.908Z,24.40
2019-04-06T18:33:44.713Z,25.03
2019-04-06T18:36:13.517Z,25.03
2019-04-06T18:38:45.726Z,26.83
2019-04-06T18:41:14.849Z,24.57
2019-04-06T18:43:44.110Z,27.03
2019-04-06T18:46:15.974Z,26.67
2019-04-06T18:48:44.903Z,25.77
2019-04-06T18:51:13.781Z,26.63
2019-04-06T18:53:42.595Z,26.83
2019-04-06T18:56:11.792Z,29.90
2019-04-06T18:58:40.772Z,29.37
2019-04-06T19:01:09.996Z,31.43
2019-04-06T19:03:39.021Z,28.80
2019-04-06T19:06:07.906Z,29.07
2019-04-06T19:08:36.956Z,29.23
2019-04-06T19:11:05.920Z,29.37
2019-04-06T19:13:35.373Z,29.80
2019-04-06T19:16:10.429Z,30.23
2019-04-06T19:18:45.500Z,31.10
2019-04-06T19:21:14.469Z,29.60
2019-04-06T19:23:43.530Z,30.80
2019-04-06T19:26:12.831Z,30.53
2019-04-06T19:28:42.255Z,30.30
2019-04-06T19:31:11.300Z,30.23
2019-04-06T19:33:40.180Z,29.60
2019-04-06T19:36:08.985Z,29.00
2019-04-06T19:38:38.148Z,31.17
2019-04-06T19:41:07.021Z,30.43
2019-04-06T19:43:35.824Z,30.37
2019-04-06T19:46:04.713Z,27.70
2019-04-06T19:48:33.726Z,29.13
2019-04-06T19:51:02.611Z,29.50
2019-04-06T19:53:31.835Z,29.07
2019-04-06T19:56:01.034Z,30.40
2019-04-06T19:58:30.194Z,29.00
2019-04-06T20:00:59.799Z,29.40
2019-04-06T20:03:34.609Z,30.77
2019-04-06T20:05:59.314Z,29.93
2019-04-06T20:08:28.208Z,30.77
2019-04-06T20:10:57.005Z,30.53
2019-04-06T20:13:28.176Z,30.23
2019-04-06T20:15:56.484Z,29.50
2019-04-06T20:18:26.191Z,29.37
2019-04-06T20:20:55.265Z,28.30
2019-04-06T20:23:24.368Z,27.47
2019-04-06T20:25:53.246Z,27.67
2019-04-06T20:28:22.205Z,27.00
2019-04-06T20:30:51.020Z,23.63
2019-04-06T20:33:20.561Z,23.80
2019-04-06T20:35:49.468Z,21.90
2019-04-06T20:38:18.317Z,23.70
2019-04-06T20:40:48.184Z,23.50
2019-04-06T20:43:17.501Z,21.90
2019-04-06T20:45:46.773Z,20.57
2019-04-06T20:48:15.645Z,22.17
2019-04-06T20:50:45.072Z,24.07
2019-04-06T20:53:14.585Z,21.97
2019-04-06T20:55:46.617Z,23.10
2019-04-06T20:58:15.751Z,23.10
2019-04-06T21:00:44.598Z,23.43
2019-04-06T21:03:13.916Z,22.83
2019-04-06T21:05:42.977Z,22.23
2019-04-06T21:08:12.169Z,20.57
2019-04-06T21:10:44.184Z,20.67
2019-04-06T21:13:13.069Z,19.77
2019-04-06T21:15:41.939Z,18.70
2019-04-06T21:18:10.875Z,18.80
2019-04-06T21:20:39.880Z,18.10
2019-04-06T21:23:08.709Z,18.77
2019-04-06T21:25:38.678Z,14.70
2019-04-06T21:28:07.912Z,17.73
2019-04-06T21:30:36.855Z,17.27
2019-04-06T21:33:05.649Z,18.33
2019-04-06T21:35:34.561Z,19.10
2019-04-06T21:38:03.333Z,19.07
2019-04-06T21:40:32.159Z,19.67
2019-04-06T21:43:01.578Z,18.33
2019-04-06T21:45:32.570Z,19.53
2019-04-06T21:48:01.713Z,17.63
2019-04-06T21:50:30.805Z,18.17
2019-04-06T21:52:59.660Z,16.90
2019-04-06T21:55:28.459Z,18.40
2019-04-06T21:57:57.460Z,18.97
2019-04-06T22:00:44.773Z,18.67
2019-04-06T22:03:13.909Z,18.63
2019-04-06T22:05:42.725Z,18.10
2019-04-06T22:08:11.819Z,18.77
2019-04-06T22:10:40.647Z,18.50
2019-04-06T22:13:09.512Z,18.97
2019-04-06T22:15:38.918Z,18.60
2019-04-06T22:18:07.918Z,18.70
2019-04-06T22:20:36.795Z,18.70
2019-04-06T22:23:06.600Z,18.00
2019-04-06T22:25:35.651Z,19.87
2019-04-06T22:28:10.888Z,17.87
2019-04-06T22:30:40.546Z,17.80
2019-04-06T22:33:09.480Z,19.07
2019-04-06T22:35:38.406Z,19.40
2019-04-06T22:38:08.098Z,18.77
2019-04-06T22:40:37.133Z,18.50
2019-04-06T22:43:06.583Z,19.37
2019-04-06T22:45:35.931Z,17.93
2019-04-06T22:48:04.985Z,19.00
2019-04-06T22:50:33.880Z,18.90
2019-04-06T22:53:02.721Z,19.50
2019-04-06T22:55:31.568Z,18.33
2019-04-06T22:58:00.352Z,19.53
2019-04-06T23:00:32.638Z,18.40
2019-04-06T23:03:19.453Z,18.60
2019-04-06T23:05:51.834Z,18.27
2019-04-06T23:08:21.227Z,20.13
2019-04-06T23:10:50.463Z,19.40
2019-04-06T23:13:19.374Z,18.57
2019-04-06T23:15:48.808Z,18.73
2019-04-06T23:18:17.654Z,18.83
2019-04-06T23:20:46.465Z,21.63
2019-04-06T23:23:15.419Z,20.80
2019-04-06T23:25:44.909Z,20.20
2019-04-06T23:28:14.393Z,20.57
2019-04-06T23:30:44.065Z,19.60
2019-04-06T23:33:13.041Z,21.40
2019-04-06T23:35:42.291Z,21.10
2019-04-06T23:38:11.329Z,21.47
2019-04-06T23:40:40.385Z,21.80
2019-04-06T23:43:09.710Z,19.90
2019-04-06T23:45:39.392Z,21.73
2019-04-06T23:48:08.220Z,22.90
2019-04-06T23:50:37.032Z,22.10
2019-04-06T23:53:05.890Z,21.50
2019-04-06T23:55:35.337Z,20.83
2019-04-06T23:58:04.368Z,21.30
